createdAt,value
2022-10-18T00:02:11.985Z,96044.31
2022-10-18T00:04:38.598Z,96042.09
2022-10-18T00:07:05.267Z,96050.78
2022-10-18T00:09:31.985Z,96041.63
2022-10-18T00:11:58.667Z,96052.66
2022-10-18T00:14:25.402Z,96050.19
2022-10-18T00:16:51.994Z,96053.22
2022-10-18T00:19:18.566Z,96046.06
2022-10-18T00:24:16.847Z,96056.03
2022-10-18T00:26:43.503Z,96046.53
2022-10-18T00:29:13.628Z,96042.91
2022-10-18T00:31:40.471Z,96037.88
2022-10-18T00:34:12.005Z,96032.25
2022-10-18T00:36:38.636Z,96031.19
2022-10-18T00:39:07.185Z,96029.56
2022-10-18T00:41:36.239Z,96031.91
2022-10-18T00:44:12.967Z,96028.28
2022-10-18T00:46:45.923Z,96029.44
2022-10-18T00:49:25.563Z,96028.03
2022-10-18T00:51:55.942Z,96030.00
2022-10-18T00:54:24.046Z,96028.59
2022-10-18T00:56:51.092Z,96032.25
2022-10-18T00:59:18.744Z,96029.31
2022-10-18T01:01:45.652Z,96039.72
2022-10-18T01:04:16.876Z,96038.69
2022-10-18T01:07:05.819Z,96046.63
2022-10-18T01:09:38.794Z,96034.69
2022-10-18T01:12:33.113Z,96047.09
2022-10-18T01:15:21.458Z,96048.97
2022-10-18T01:18:26.517Z,96042.53
2022-10-18T01:21:11.455Z,96044.72
2022-10-18T01:24:15.567Z,96052.44
2022-10-18T01:26:50.842Z,96050.84
2022-10-18T01:29:44.764Z,96047.56
2022-10-18T01:32:22.990Z,96046.19
2022-10-18T01:34:55.904Z,96041.91
2022-10-18T01:37:22.896Z,96038.19
2022-10-18T01:39:53.815Z,96037.84
2022-10-18T01:42:21.391Z,96035.66
2022-10-18T01:44:51.636Z,96040.69
2022-10-18T01:47:19.487Z,96033.16
2022-10-18T01:49:46.481Z,96030.97
2022-10-18T01:52:14.524Z,96025.22
2022-10-18T01:54:44.384Z,96022.28
2022-10-18T01:57:32.693Z,96019.38
2022-10-18T02:00:07.466Z,96020.28
2022-10-18T02:02:47.455Z,96025.09
2022-10-18T02:05:28.100Z,96038.97
2022-10-18T02:08:36.365Z,96041.50
2022-10-18T02:11:08.382Z,96037.63
2022-10-18T02:13:43.972Z,96031.06
2022-10-18T02:16:15.577Z,96042.13
2022-10-18T02:18:44.449Z,96048.13
2022-10-18T02:21:15.516Z,96040.88
2022-10-18T02:23:45.116Z,96038.81
2022-10-18T02:26:12.906Z,96036.53
2022-10-18T02:28:40.360Z,96042.38
2022-10-18T02:31:28.301Z,96046.56
2022-10-18T02:34:40.957Z,96048.56
2022-10-18T02:37:08.919Z,96046.63
2022-10-18T02:39:36.927Z,96046.72
2022-10-18T02:42:06.902Z,96048.34
2022-10-18T02:44:34.814Z,96041.53
2022-10-18T02:47:01.727Z,96050.41
2022-10-18T02:49:28.439Z,96052.19
2022-10-18T02:51:55.047Z,96064.09
2022-10-18T02:54:21.691Z,96054.41
2022-10-18T02:56:48.286Z,96051.63
2022-10-18T02:59:14.977Z,96051.41
2022-10-18T03:01:41.572Z,96045.81
2022-10-18T03:04:08.273Z,96056.97
2022-10-18T03:06:34.943Z,96053.47
2022-10-18T03:09:05.974Z,96056.53
2022-10-18T03:11:32.677Z,96061.69
2022-10-18T03:13:59.286Z,96066.13
2022-10-18T03:16:25.826Z,96068.00
2022-10-18T03:18:52.408Z,96068.09
2022-10-18T03:21:19.023Z,96062.16
2022-10-18T03:23:45.619Z,96069.69
2022-10-18T03:26:12.195Z,96068.69
2022-10-18T03:28:38.828Z,96067.25
2022-10-18T03:31:05.618Z,96069.47
2022-10-18T03:33:32.784Z,96068.44
2022-10-18T03:35:59.715Z,96057.75
2022-10-18T03:38:26.710Z,96059.88
2022-10-18T03:40:53.310Z,96078.59
2022-10-18T03:43:19.932Z,96081.63
2022-10-18T03:45:46.540Z,96087.78
2022-10-18T03:48:13.137Z,96086.72
2022-10-18T03:50:39.723Z,96083.78
2022-10-18T03:53:06.343Z,96079.13
2022-10-18T03:55:32.901Z,96085.22
2022-10-18T03:57:59.645Z,96089.91
2022-10-18T04:00:26.203Z,96095.44
2022-10-18T04:02:55.114Z,96093.09
2022-10-18T04:05:28.031Z,96085.13
2022-10-18T04:07:55.002Z,96082.75
2022-10-18T04:10:21.735Z,96075.16
2022-10-18T04:12:48.401Z,96073.66
2022-10-18T04:15:15.063Z,96065.00
2022-10-18T04:17:42.022Z,96064.19
2022-10-18T04:20:09.193Z,96069.22
2022-10-18T04:22:35.852Z,96074.72
2022-10-18T04:25:02.409Z,96073.88
2022-10-18T04:27:29.483Z,96074.34
2022-10-18T04:29:56.350Z,96071.13
2022-10-18T04:32:23.087Z,96067.72
2022-10-18T04:34:49.649Z,96057.44
2022-10-18T04:37:17.284Z,96061.88
2022-10-18T04:39:49.883Z,96058.25
2022-10-18T04:42:19.364Z,96061.53
2022-10-18T04:44:46.012Z,96058.03
2022-10-18T04:47:12.635Z,96051.22
2022-10-18T04:49:39.233Z,96047.81
2022-10-18T04:52:05.901Z,96046.78
2022-10-18T04:54:32.511Z,96040.34
2022-10-18T04:56:59.127Z,96042.31
2022-10-18T04:59:25.772Z,96044.66
2022-10-18T05:01:52.505Z,96043.03
2022-10-18T05:04:19.145Z,96037.31
2022-10-18T05:06:46.073Z,96047.38
2022-10-18T05:09:12.759Z,96057.31
2022-10-18T05:11:39.526Z,96056.94
2022-10-18T05:14:06.235Z,96052.03
2022-10-18T05:16:33.115Z,96056.25
2022-10-18T05:18:59.735Z,96056.25
2022-10-18T05:21:26.345Z,96057.75
2022-10-18T05:23:56.248Z,96057.41
2022-10-18T05:26:22.860Z,96053.53
2022-10-18T05:28:50.520Z,96049.91
2022-10-18T05:31:17.515Z,96048.84
2022-10-18T05:33:44.141Z,96058.34
2022-10-18T05:36:11.193Z,96057.28
2022-10-18T05:38:42.937Z,96048.94
2022-10-18T05:41:10.165Z,96057.25
2022-10-18T05:43:36.808Z,96052.44
2022-10-18T05:46:06.479Z,96063.81
2022-10-18T05:48:34.905Z,96058.97
2022-10-18T05:51:01.943Z,96057.91
2022-10-18T05:53:36.680Z,96060.22
2022-10-18T05:56:04.475Z,96064.91
2022-10-18T05:58:31.006Z,96062.06
2022-10-18T06:01:05.834Z,96076.50
2022-10-18T06:03:33.026Z,96070.59
2022-10-18T06:06:01.360Z,96067.81
2022-10-18T06:08:28.012Z,96074.69
2022-10-18T06:10:54.700Z,96065.44
2022-10-18T06:13:21.345Z,96057.81
2022-10-18T06:15:47.931Z,96057.81
2022-10-18T06:18:14.496Z,96056.94
2022-10-18T06:20:41.148Z,96059.97
2022-10-18T06:23:07.733Z,96064.06
2022-10-18T06:25:34.322Z,96077.41
2022-10-18T06:28:00.858Z,96080.69
2022-10-18T06:30:27.475Z,96083.84
2022-10-18T06:32:54.003Z,96082.66
2022-10-18T06:35:20.680Z,96083.84
2022-10-18T06:37:47.257Z,96084.66
2022-10-18T06:40:14.124Z,96088.06
2022-10-18T06:42:40.694Z,96081.38
2022-10-18T06:45:07.947Z,96090.78
2022-10-18T06:47:34.520Z,96091.59
2022-10-18T06:50:01.142Z,96103.31
2022-10-18T06:52:27.759Z,96093.41
2022-10-18T06:54:54.321Z,96091.53
2022-10-18T06:57:21.643Z,96093.94
2022-10-18T06:59:49.954Z,96090.72
2022-10-18T07:02:17.415Z,96087.63
2022-10-18T07:04:44.006Z,96092.84
2022-10-18T07:07:10.655Z,96088.09
2022-10-18T07:09:37.262Z,96085.44
2022-10-18T07:12:04.164Z,96080.31
2022-10-18T07:14:30.729Z,96085.91
2022-10-18T07:16:59.485Z,96094.34
2022-10-18T07:19:26.087Z,96089.78
2022-10-18T07:21:52.715Z,96091.25
2022-10-18T07:24:19.283Z,96089.13
2022-10-18T07:26:45.895Z,96087.78
2022-10-18T07:29:13.086Z,96097.97
2022-10-18T07:31:40.874Z,96092.19
2022-10-18T07:34:10.853Z,96105.31
2022-10-18T07:36:37.606Z,96106.06
2022-10-18T07:39:05.137Z,96107.00
2022-10-18T07:41:33.785Z,96112.50
2022-10-18T07:44:01.102Z,96102.94
2022-10-18T07:46:27.785Z,96107.88
2022-10-18T07:48:54.960Z,96110.44
2022-10-18T07:51:22.310Z,96111.38
2022-10-18T07:53:48.931Z,96115.00
2022-10-18T07:56:20.886Z,96111.59
2022-10-18T07:58:53.964Z,96114.97
2022-10-18T08:01:22.369Z,96113.00
2022-10-18T08:03:49.621Z,96102.06
2022-10-18T08:06:18.557Z,96106.47
2022-10-18T08:08:46.076Z,96101.09
2022-10-18T08:11:19.221Z,96095.25
2022-10-18T08:13:46.166Z,96095.41
2022-10-18T08:16:16.325Z,96093.06
2022-10-18T08:18:42.950Z,96093.69
2022-10-18T08:21:11.662Z,96089.06
2022-10-18T08:23:39.036Z,96086.56
2022-10-18T08:26:08.684Z,96080.53
2022-10-18T08:28:38.356Z,96082.50
2022-10-18T08:31:07.785Z,96084.13
2022-10-18T08:33:36.150Z,96093.69
2022-10-18T08:36:05.851Z,96093.19
2022-10-18T08:38:34.392Z,96093.16
2022-10-18T08:41:30.169Z,96089.75
2022-10-18T08:44:04.785Z,96087.09
2022-10-18T08:46:35.824Z,96088.72
2022-10-18T08:49:04.128Z,96094.72
2022-10-18T08:51:45.124Z,96085.00
2022-10-18T08:54:18.870Z,96078.06
2022-10-18T08:56:58.102Z,96088.50
2022-10-18T08:59:25.636Z,96085.44
2022-10-18T09:02:10.347Z,96084.72
2022-10-18T09:04:49.076Z,96092.38
2022-10-18T09:07:40.303Z,96088.75
2022-10-18T09:10:15.786Z,96091.81
2022-10-18T09:13:04.246Z,96092.22
2022-10-18T09:15:45.591Z,96093.81
2022-10-18T09:18:31.907Z,96089.63
2022-10-18T09:21:18.751Z,96097.16
2022-10-18T09:23:49.889Z,96092.22
2022-10-18T09:26:19.450Z,96098.59
2022-10-18T09:29:10.234Z,96090.25
2022-10-18T09:31:45.979Z,96093.63
2022-10-18T09:34:33.892Z,96087.63
2022-10-18T09:37:01.063Z,96081.41
2022-10-18T09:39:39.039Z,96093.69
2022-10-18T09:42:18.064Z,96091.78
2022-10-18T09:44:51.163Z,96091.44
2022-10-18T09:47:23.177Z,96095.13
2022-10-18T09:49:56.187Z,96092.88
2022-10-18T09:52:39.407Z,96084.38
2022-10-18T09:55:15.501Z,96087.03
2022-10-18T09:57:50.171Z,96086.22
2022-10-18T10:00:22.718Z,96080.28
2022-10-18T10:02:49.307Z,96083.59
2022-10-18T10:05:16.203Z,96075.13
2022-10-18T10:07:45.704Z,96078.59
2022-10-18T10:10:23.831Z,96081.06
2022-10-18T10:13:16.036Z,96078.28
2022-10-18T10:16:09.113Z,96077.72
2022-10-18T10:18:39.162Z,96074.47
2022-10-18T10:21:08.144Z,96070.41
2022-10-18T10:23:45.738Z,96061.25
2022-10-18T10:26:27.365Z,96073.22
2022-10-18T10:28:54.181Z,96067.56
2022-10-18T10:31:35.983Z,96063.34
2022-10-18T10:34:14.616Z,96057.72
2022-10-18T10:36:53.280Z,96059.56
2022-10-18T10:39:22.384Z,96060.84
2022-10-18T10:41:59.068Z,96052.47
2022-10-18T10:44:30.145Z,96051.94
2022-10-18T10:46:57.957Z,96046.09
2022-10-18T10:49:40.196Z,96040.25
2022-10-18T10:52:27.333Z,96047.78
2022-10-18T10:55:30.821Z,96041.69
2022-10-18T10:57:47.352Z,96036.63
2022-10-18T11:00:32.436Z,96041.84
2022-10-18T11:03:27.288Z,96041.69
2022-10-18T11:05:57.772Z,96032.97
2022-10-18T11:08:27.692Z,96034.03
2022-10-18T11:11:00.425Z,96029.53
2022-10-18T11:14:07.327Z,96029.41
2022-10-18T11:16:54.598Z,96032.38
2022-10-18T11:19:34.286Z,96021.94
2022-10-18T11:22:04.867Z,96022.47
2022-10-18T11:24:31.404Z,96027.81
2022-10-18T11:27:21.071Z,96027.38
2022-10-18T11:30:02.909Z,96023.50
2022-10-18T11:32:38.717Z,96019.19
2022-10-18T11:35:14.262Z,96015.81
2022-10-18T11:37:47.026Z,96012.28
2022-10-18T11:40:31.931Z,96010.53
2022-10-18T11:43:10.348Z,96009.00
2022-10-18T11:46:18.196Z,96001.94
2022-10-18T11:48:59.522Z,96007.78
2022-10-18T11:52:03.131Z,96005.28
2022-10-18T11:57:34.778Z,95994.28
2022-10-18T12:00:16.916Z,95993.38
2022-10-18T12:02:43.527Z,95995.91
2022-10-18T12:05:23.258Z,95990.53
2022-10-18T12:07:54.970Z,95972.72
2022-10-18T12:10:31.744Z,95985.28
2022-10-18T12:13:16.594Z,95986.31
2022-10-18T12:15:43.761Z,95981.47
2022-10-18T12:18:18.516Z,95969.63
2022-10-18T12:20:55.004Z,95983.53
2022-10-18T12:24:06.501Z,95976.09
2022-10-18T12:26:35.055Z,95975.47
2022-10-18T12:29:26.304Z,95974.38
2022-10-18T12:31:54.811Z,95967.88
2022-10-18T12:34:21.315Z,95973.78
2022-10-18T12:36:55.161Z,95966.16
2022-10-18T12:39:43.582Z,95962.88
2022-10-18T12:42:22.995Z,95961.13
2022-10-18T12:44:59.969Z,95959.16
2022-10-18T12:47:29.731Z,95956.69
2022-10-18T12:49:59.432Z,95961.25
2022-10-18T12:52:29.298Z,95959.50
2022-10-18T12:55:08.098Z,95959.78
2022-10-18T12:58:25.773Z,95952.13
2022-10-18T13:00:54.794Z,95955.56
2022-10-18T13:03:27.464Z,95952.13
2022-10-18T13:05:57.809Z,95952.69
2022-10-18T13:08:27.438Z,95956.28
2022-10-18T13:11:09.107Z,95952.59
2022-10-18T13:14:00.225Z,95957.59
2022-10-18T13:16:41.871Z,95955.41
2022-10-18T13:19:15.680Z,95951.19
2022-10-18T13:21:45.218Z,95947.03
2022-10-18T13:24:34.184Z,95952.91
2022-10-18T13:27:18.127Z,95949.47
2022-10-18T13:29:47.199Z,95956.59
2022-10-18T13:32:28.919Z,95952.63
2022-10-18T13:34:55.852Z,95953.69
2022-10-18T13:37:26.452Z,95953.00
2022-10-18T13:40:24.323Z,95946.63
2022-10-18T13:42:51.284Z,95948.63
2022-10-18T13:45:33.081Z,95948.09
2022-10-18T13:48:30.684Z,95954.94
2022-10-18T13:51:18.834Z,95960.13
2022-10-18T13:53:52.621Z,95959.19
2022-10-18T13:56:55.564Z,95965.88
2022-10-18T13:59:55.204Z,95957.84
2022-10-18T14:02:54.554Z,95961.84
2022-10-18T14:05:34.197Z,95953.28
2022-10-18T14:08:12.763Z,95959.38
2022-10-18T14:11:04.005Z,95952.25
2022-10-18T14:13:46.114Z,95947.91
2022-10-18T14:16:57.501Z,95956.88
2022-10-18T14:19:34.178Z,95958.38
2022-10-18T14:22:18.401Z,95957.78
2022-10-18T14:24:49.822Z,95951.06
2022-10-18T14:27:22.420Z,95951.91
2022-10-18T14:29:50.548Z,95959.38
2022-10-18T14:32:30.129Z,95953.97
2022-10-18T14:35:27.276Z,95957.31
2022-10-18T14:37:43.875Z,95957.38
2022-10-18T14:40:38.883Z,95956.72
2022-10-18T14:43:19.155Z,95959.00
2022-10-18T14:45:45.823Z,95955.63
2022-10-18T14:48:22.266Z,95961.22
2022-10-18T14:51:02.675Z,95959.75
2022-10-18T14:53:36.247Z,95952.97
2022-10-18T14:56:07.416Z,95965.47
2022-10-18T14:58:37.391Z,95967.97
2022-10-18T15:01:04.824Z,95965.44
2022-10-18T15:03:35.728Z,95961.31
2022-10-18T15:06:05.328Z,95965.50
2022-10-18T15:08:43.776Z,95964.16
2022-10-18T15:11:14.467Z,95957.63
2022-10-18T15:14:02.917Z,95962.19
2022-10-18T15:16:31.330Z,95961.22
2022-10-18T15:19:16.159Z,95961.56
2022-10-18T15:25:18.917Z,95959.34
2022-10-18T15:27:55.467Z,95953.66
2022-10-18T15:30:24.741Z,95967.66
2022-10-18T15:32:56.825Z,95971.69
2022-10-18T15:35:29.564Z,95965.00
2022-10-18T15:38:00.311Z,95966.84
2022-10-18T15:40:36.723Z,95960.88
2022-10-18T15:43:06.690Z,95963.94
2022-10-18T15:48:30.555Z,95967.41
2022-10-18T15:51:27.199Z,95964.06
2022-10-18T15:53:54.663Z,95966.59
2022-10-18T15:56:35.827Z,95972.25
2022-10-18T15:59:05.117Z,95972.59
2022-10-18T16:01:43.446Z,95970.31
2022-10-18T16:04:22.970Z,95965.59
2022-10-18T16:06:50.296Z,95972.16
2022-10-18T16:09:19.698Z,95975.03
2022-10-18T16:11:47.359Z,95989.97
2022-10-18T16:14:13.959Z,95993.88
2022-10-18T16:16:40.797Z,95990.56
2022-10-18T16:19:08.365Z,95995.41
2022-10-18T16:21:38.068Z,95993.25
2022-10-18T16:24:05.377Z,95994.13
2022-10-18T16:26:32.284Z,96003.31
2022-10-18T16:28:59.624Z,96001.94
2022-10-18T16:31:28.924Z,95998.41
2022-10-18T16:33:56.140Z,96000.22
2022-10-18T16:36:33.519Z,96000.91
2022-10-18T16:39:04.081Z,95996.88
2022-10-18T16:41:30.647Z,96000.84
2022-10-18T16:43:57.229Z,95999.59
2022-10-18T16:46:29.590Z,96000.13
2022-10-18T16:48:56.635Z,96002.94
2022-10-18T16:51:23.642Z,96014.03
2022-10-18T16:53:50.249Z,96007.69
2022-10-18T16:56:19.516Z,96014.59
2022-10-18T16:58:46.891Z,96017.56
2022-10-18T17:01:15.405Z,96028.66
2022-10-18T17:03:42.613Z,96033.56
2022-10-18T17:06:17.890Z,96029.00
2022-10-18T17:08:44.907Z,96028.53
2022-10-18T17:11:13.222Z,96030.59
2022-10-18T17:13:40.540Z,96035.03
2022-10-18T17:16:18.826Z,96034.69
2022-10-18T17:18:45.543Z,96029.63
2022-10-18T17:21:12.189Z,96038.75
2022-10-18T17:23:39.109Z,96040.38
2022-10-18T17:26:26.281Z,96035.03
2022-10-18T17:28:57.703Z,96040.69
2022-10-18T17:31:24.427Z,96045.09
2022-10-18T17:33:54.384Z,96050.13
2022-10-18T17:36:21.460Z,96053.38
2022-10-18T17:38:51.969Z,96059.41
2022-10-18T17:41:18.677Z,96064.09
2022-10-18T17:43:45.360Z,96063.16
2022-10-18T17:46:12.870Z,96060.22
2022-10-18T17:48:39.783Z,96057.28
2022-10-18T17:51:10.825Z,96062.19
2022-10-18T17:53:37.590Z,96067.69
2022-10-18T17:56:05.075Z,96069.66
2022-10-18T17:58:32.244Z,96068.78
2022-10-18T18:01:15.365Z,96073.19
2022-10-18T18:03:42.274Z,96074.16
2022-10-18T18:06:36.347Z,96070.44
2022-10-18T18:09:12.489Z,96077.28
2022-10-18T18:11:41.971Z,96080.81
2022-10-18T18:14:09.658Z,96086.59
2022-10-18T18:16:38.866Z,96085.66
2022-10-18T18:19:09.641Z,96091.34
2022-10-18T18:21:36.716Z,96088.13
2022-10-18T18:24:03.548Z,96091.69
2022-10-18T18:26:35.068Z,96085.69
2022-10-18T18:31:36.918Z,96084.28
2022-10-18T18:34:06.883Z,96071.75
2022-10-18T18:36:33.572Z,96074.22
2022-10-18T18:39:00.264Z,96066.69
2022-10-18T18:41:28.489Z,96081.47
2022-10-18T18:43:57.698Z,96081.69
2022-10-18T18:46:26.241Z,96092.78
2022-10-18T18:48:53.470Z,96091.75
2022-10-18T18:51:21.682Z,96086.34
2022-10-18T18:53:48.854Z,96093.78
2022-10-18T18:58:54.399Z,96083.25
2022-10-18T19:01:26.206Z,96076.91
2022-10-18T19:03:54.811Z,96082.00
2022-10-18T19:06:27.418Z,96077.47
2022-10-18T19:09:01.276Z,96083.16
2022-10-18T19:11:31.202Z,96081.84
2022-10-18T19:13:58.027Z,96094.84
2022-10-18T19:16:33.022Z,96081.16
2022-10-18T19:19:01.260Z,96087.47
2022-10-18T19:21:31.312Z,96076.78
2022-10-18T19:23:58.727Z,96079.81
2022-10-18T19:26:27.023Z,96075.38
2022-10-18T19:28:53.848Z,96076.06
2022-10-18T19:31:20.824Z,96075.16
2022-10-18T19:33:58.984Z,96072.72
2022-10-18T19:36:27.025Z,96069.63
2022-10-18T19:38:53.614Z,96071.56
2022-10-18T19:41:20.208Z,96083.41
2022-10-18T19:43:46.913Z,96079.72
2022-10-18T19:46:13.457Z,96081.19
2022-10-18T19:48:40.046Z,96077.28
2022-10-18T19:51:09.531Z,96087.63
2022-10-18T19:53:37.113Z,96092.75
2022-10-18T19:56:05.358Z,96090.50
2022-10-18T19:58:32.650Z,96094.94
2022-10-18T20:01:00.280Z,96096.03
2022-10-18T20:03:30.306Z,96094.28
2022-10-18T20:06:02.578Z,96101.03
2022-10-18T20:08:31.907Z,96100.13
2022-10-18T20:11:11.023Z,96100.25
2022-10-18T20:13:37.930Z,96094.50
2022-10-18T20:16:07.392Z,96093.34
2022-10-18T20:18:33.994Z,96097.38
2022-10-18T20:21:03.591Z,96091.19
2022-10-18T20:23:32.282Z,96103.34
2022-10-18T20:26:01.170Z,96099.88
2022-10-18T20:28:28.687Z,96105.50
2022-10-18T20:31:06.363Z,96103.53
2022-10-18T20:33:34.331Z,96106.84
2022-10-18T20:36:11.488Z,96106.63
2022-10-18T20:38:42.550Z,96099.72
2022-10-18T20:41:15.070Z,96099.31
2022-10-18T20:43:42.722Z,96099.59
2022-10-18T20:46:10.230Z,96096.91
2022-10-18T20:48:38.633Z,96099.78
2022-10-18T20:51:14.796Z,96109.56
2022-10-18T20:53:41.627Z,96104.00
2022-10-18T20:56:14.119Z,96103.84
2022-10-18T20:58:42.206Z,96102.25
2022-10-18T21:01:12.982Z,96101.72
2022-10-18T21:03:41.717Z,96096.63
2022-10-18T21:06:16.519Z,96101.56
2022-10-18T21:08:43.906Z,96092.81
2022-10-18T21:11:11.662Z,96093.47
2022-10-18T21:13:38.549Z,96088.69
2022-10-18T21:16:06.077Z,96082.69
2022-10-18T21:18:34.986Z,96087.63
2022-10-18T21:21:09.026Z,96087.66
2022-10-18T21:23:36.019Z,96087.00
2022-10-18T21:26:02.601Z,96082.53
2022-10-18T21:28:29.357Z,96083.13
2022-10-18T21:30:57.809Z,96087.63
2022-10-18T21:33:24.409Z,96085.81
2022-10-18T21:35:50.985Z,96084.22
2022-10-18T21:38:17.581Z,96083.38
2022-10-18T21:40:44.700Z,96080.63
2022-10-18T21:43:11.846Z,96079.03
2022-10-18T21:45:38.432Z,96081.09
2022-10-18T21:48:05.165Z,96077.25
2022-10-18T21:50:34.114Z,96073.16
2022-10-18T21:53:00.691Z,96072.03
2022-10-18T21:55:27.365Z,96069.97
2022-10-18T21:57:53.910Z,96067.25
2022-10-18T22:00:20.540Z,96062.53
2022-10-18T22:02:47.119Z,96061.81
2022-10-18T22:05:13.808Z,96055.19
2022-10-18T22:07:40.407Z,96056.97
2022-10-18T22:10:07.326Z,96052.59
2022-10-18T22:12:33.888Z,96058.31
2022-10-18T22:15:02.355Z,96059.53
2022-10-18T22:17:28.914Z,96052.72
2022-10-18T22:19:55.479Z,96054.56
2022-10-18T22:22:23.478Z,96055.88
2022-10-18T22:24:50.124Z,96047.97
2022-10-18T22:27:16.739Z,96044.50
2022-10-18T22:29:43.299Z,96047.75
2022-10-18T22:32:09.914Z,96050.63
2022-10-18T22:34:36.805Z,96050.09
2022-10-18T22:37:03.400Z,96043.03
2022-10-18T22:39:29.978Z,96037.88
2022-10-18T22:41:57.280Z,96037.69
2022-10-18T22:44:23.983Z,96032.03
2022-10-18T22:46:50.649Z,96034.94
2022-10-18T22:49:17.271Z,96029.91
2022-10-18T22:51:44.023Z,96033.97
2022-10-18T22:54:10.743Z,96027.59
2022-10-18T22:56:37.407Z,96026.66
2022-10-18T22:59:04.063Z,96024.28
2022-10-18T23:01:30.627Z,96024.44
2022-10-18T23:03:59.501Z,96024.72
2022-10-18T23:06:26.039Z,96030.28
2022-10-18T23:08:54.662Z,96028.13
2022-10-18T23:11:22.257Z,96029.47
2022-10-18T23:13:49.143Z,96022.03
2022-10-18T23:16:16.925Z,96025.47
2022-10-18T23:18:43.573Z,96023.69
2022-10-18T23:21:12.564Z,96024.97
2022-10-18T23:23:41.339Z,96014.03
2022-10-18T23:26:11.665Z,96011.47
2022-10-18T23:28:40.834Z,96006.84
2022-10-18T23:31:13.778Z,96010.16
2022-10-18T23:33:41.078Z,96008.09
2022-10-18T23:36:08.358Z,96007.44
2022-10-18T23:38:36.080Z,96006.75
2022-10-18T23:41:03.092Z,96007.03
2022-10-18T23:43:29.608Z,96013.44
2022-10-18T23:45:56.196Z,96012.88
2022-10-18T23:48:22.859Z,96015.59
2022-10-18T23:50:49.441Z,96007.28
2022-10-18T23:53:16.095Z,96005.50
2022-10-18T23:55:57.593Z,96004.16
2022-10-18T23:58:25.124Z,96003.47
